Time;durP1;ratioP1;P1;durP2;ratioP2;P2;SDS_P1;SDS_P2;PMS_P1;PMS_P2;Temp;Humidity;BMP_temperature;BMP_pressure;BME280_temperature;BME280_humidity;BME280_pressure;Samples;Min_cycle;Max_cycle;Signal;HPM_P1;HPM_P2
2023/08/10 00:00:32;;;;;;;2.90;1.80;;;;;;;29.07;36.77;100965.84;103802;1286;61308;-83
2023/08/10 00:02:58;;;;;;;3.30;1.90;;;;;;;29.07;36.70;100966.39;103555;1288;61290;-83
2023/08/10 00:05:24;;;;;;;3.40;1.90;;;;;;;29.06;36.65;100966.95;103737;1286;63812;-83
2023/08/10 00:07:49;;;;;;;3.00;1.90;;;;;;;29.06;36.51;100969.85;103797;1286;61386;-83
2023/08/10 00:10:15;;;;;;;3.10;2.00;;;;;;;29.07;36.65;100975.80;103777;1286;61507;-83
2023/08/10 00:12:40;;;;;;;3.10;1.70;;;;;;;29.07;36.60;100978.90;103681;1285;61961;-83
2023/08/10 00:15:06;;;;;;;3.30;2.00;;;;;;;29.06;36.76;100980.39;103868;1286;61414;-83
2023/08/10 00:17:33;;;;;;;3.20;2.00;;;;;;;29.06;36.66;100981.30;103588;1293;63818;-83
2023/08/10 00:19:58;;;;;;;3.30;1.90;;;;;;;29.06;36.69;100977.86;103747;1288;61995;-83
2023/08/10 00:22:24;;;;;;;3.20;1.90;;;;;;;29.07;36.76;100976.91;103874;1289;61386;-83
2023/08/10 00:24:49;;;;;;;3.50;1.90;;;;;;;29.06;36.52;100973.75;103729;1287;61341;-83
2023/08/10 00:27:15;;;;;;;3.40;2.10;;;;;;;29.06;36.81;100976.27;103889;1289;61459;-83
2023/08/10 00:29:41;;;;;;;3.80;2.20;;;;;;;29.06;36.83;100979.77;103654;1289;61387;-83
2023/08/10 00:32:06;;;;;;;3.50;1.80;;;;;;;29.05;36.71;100980.51;103827;1289;66874;-83
2023/08/10 00:34:32;;;;;;;3.10;1.80;;;;;;;29.05;36.85;100984.29;103741;1290;61402;-83
2023/08/10 00:36:57;;;;;;;3.50;1.90;;;;;;;29.05;36.95;100983.73;103549;1287;61390;-83
2023/08/10 00:39:23;;;;;;;4.00;1.80;;;;;;;29.05;36.82;100980.20;103776;1287;61895;-83
2023/08/10 00:41:48;;;;;;;3.30;2.00;;;;;;;29.05;36.80;100982.36;103812;1289;61340;-83
2023/08/10 00:44:16;;;;;;;3.80;2.20;;;;;;;29.05;36.82;100984.17;103746;1286;65666;-82
2023/08/10 00:46:42;;;;;;;3.50;1.80;;;;;;;29.05;36.85;100984.17;103814;1288;61270;-83
2023/08/10 00:49:07;;;;;;;2.40;1.80;;;;;;;29.05;36.79;100978.02;103930;1286;61409;-83
2023/08/10 00:51:33;;;;;;;2.80;1.90;;;;;;;29.05;36.83;100976.02;103760;1286;61367;-83
2023/08/10 00:53:59;;;;;;;3.50;1.90;;;;;;;29.04;36.66;100976.98;103734;1288;61441;-83
2023/08/10 00:56:25;;;;;;;3.10;2.00;;;;;;;29.04;36.66;100977.71;103758;1286;61395;-83
2023/08/10 00:58:50;;;;;;;2.70;1.90;;;;;;;29.04;37.04;100973.56;103811;1286;62512;-83
2023/08/10 01:01:16;;;;;;;3.40;2.10;;;;;;;29.04;36.89;100968.12;103655;1291;61511;-83
2023/08/10 01:03:42;;;;;;;2.90;1.80;;;;;;;29.04;36.73;100963.66;103748;1286;63879;-83
2023/08/10 01:06:34;;;;;;;2.50;1.90;;;;;;;29.04;36.85;100962.90;103787;1290;61383;-83
2023/08/10 01:09:06;;;;;;;4.10;2.00;;;;;;;29.03;36.78;100963.38;103741;1286;61337;-83
2023/08/10 01:11:42;;;;;;;3.60;1.90;;;;;;;29.02;36.95;100965.41;103850;1286;61411;-83
2023/08/10 01:14:25;;;;;;;3.60;1.90;;;;;;;29.03;36.91;100964.13;103724;1286;63741;-83
2023/08/10 01:16:53;;;;;;;4.20;2.00;;;;;;;29.02;36.93;100964.39;103965;1286;65640;-83
2023/08/10 01:19:30;;;;;;;3.20;1.90;;;;;;;29.02;36.94;100966.16;103813;1287;61401;-82
2023/08/10 01:22:21;;;;;;;4.00;2.20;;;;;;;29.02;36.97;100965.78;103779;1288;61382;-83
2023/08/10 01:25:14;;;;;;;2.60;1.70;;;;;;;29.02;36.92;100969.08;103652;1286;65076;-83
2023/08/10 01:27:40;;;;;;;3.30;2.00;;;;;;;29.01;37.00;100972.40;103761;1288;66102;-83
2023/08/10 01:30:08;;;;;;;3.50;2.00;;;;;;;29.02;36.78;100979.75;103677;1288;61376;-83
2023/08/10 01:32:33;;;;;;;3.40;2.00;;;;;;;29.02;36.83;100979.77;103717;1286;61400;-82
2023/08/10 01:35:05;;;;;;;3.30;2.10;;;;;;;29.02;36.81;100978.29;103881;1288;61421;-83
2023/08/10 01:37:33;;;;;;;4.00;2.00;;;;;;;29.02;36.96;100977.09;103744;1285;66407;-83
2023/08/10 01:40:00;;;;;;;3.30;1.80;;;;;;;29.01;37.00;100975.66;103811;1286;61305;-83
2023/08/10 01:42:25;;;;;;;3.70;1.90;;;;;;;29.01;37.11;100972.40;103829;1286;61341;-83
2023/08/10 01:44:51;;;;;;;3.40;2.00;;;;;;;29.02;37.00;100974.34;103703;1287;61354;-83
2023/08/10 01:47:24;;;;;;;3.30;2.10;;;;;;;29.01;36.88;100973.11;103735;1287;61378;-83
2023/08/10 01:49:54;;;;;;;3.90;1.80;;;;;;;29.01;37.06;100969.55;103987;1286;61252;-83
2023/08/10 01:52:20;;;;;;;3.40;2.00;;;;;;;29.01;37.21;100966.48;103845;1288;61341;-83
2023/08/10 01:54:45;;;;;;;3.50;1.80;;;;;;;29.01;36.93;100971.14;103564;1287;61376;-83
2023/08/10 01:57:11;;;;;;;3.10;2.00;;;;;;;29.01;37.00;100964.31;104029;1286;61312;-82
2023/08/10 01:59:36;;;;;;;3.00;1.90;;;;;;;29.01;36.86;100966.98;103801;1288;61459;-83
2023/08/10 02:02:02;;;;;;;3.30;1.90;;;;;;;29.00;37.08;100964.58;103875;1287;61462;-82
2023/08/10 02:04:27;;;;;;;3.20;1.90;;;;;;;29.00;36.94;100963.45;103791;1288;61372;-82
2023/08/10 02:06:53;;;;;;;3.50;2.00;;;;;;;29.01;36.91;100971.01;103775;1286;61408;-83
2023/08/10 02:09:18;;;;;;;3.40;2.10;;;;;;;29.00;37.17;100967.80;103728;1286;61459;-83
2023/08/10 02:11:44;;;;;;;2.50;1.80;;;;;;;29.00;37.24;100967.27;103704;1288;61378;-82
2023/08/10 02:14:10;;;;;;;3.10;2.00;;;;;;;29.00;37.22;100967.29;103888;1286;61381;-82
2023/08/10 02:16:36;;;;;;;3.00;1.80;;;;;;;29.01;37.21;100969.20;103713;1288;61495;-83
2023/08/10 02:19:01;;;;;;;3.30;2.10;;;;;;;29.00;37.03;100967.46;103834;1288;61353;-83
2023/08/10 02:21:27;;;;;;;3.70;1.80;;;;;;;29.00;36.95;100966.40;103693;1286;62416;-82
2023/08/10 02:23:53;;;;;;;3.90;2.00;;;;;;;29.00;37.10;100964.23;103884;1286;62008;-82
2023/08/10 02:26:19;;;;;;;3.70;1.90;;;;;;;28.99;37.16;100959.06;103840;1287;61299;-83
2023/08/10 02:28:44;;;;;;;2.90;1.70;;;;;;;29.00;37.22;100958.25;103887;1290;61402;-83
2023/08/10 02:31:10;;;;;;;3.60;1.90;;;;;;;29.00;37.13;100959.71;103936;1286;62539;-83
2023/08/10 02:33:36;;;;;;;2.80;1.90;;;;;;;29.00;37.27;100962.27;103486;1288;65703;-83
2023/08/10 02:36:01;;;;;;;3.10;2.00;;;;;;;28.99;37.35;100962.29;103628;1287;61478;-83
2023/08/10 02:38:27;;;;;;;4.20;2.00;;;;;;;28.99;37.38;100959.98;103630;1287;61389;-83
2023/08/10 02:40:52;;;;;;;2.80;1.90;;;;;;;28.99;37.29;100957.46;103765;1288;61424;-83
2023/08/10 02:43:18;;;;;;;3.50;2.00;;;;;;;28.99;37.12;100954.04;103802;1287;61319;-83
2023/08/10 02:45:44;;;;;;;3.90;2.20;;;;;;;28.98;37.11;100957.13;103643;1287;65863;-83
2023/08/10 02:48:09;;;;;;;3.60;1.80;;;;;;;28.99;37.33;100960.52;103632;1292;61526;-83
2023/08/10 02:50:35;;;;;;;4.40;2.00;;;;;;;28.98;37.18;100962.04;103693;1287;61404;-83
2023/08/10 02:53:00;;;;;;;4.20;2.10;;;;;;;28.98;37.19;100968.70;103729;1292;61440;-83
2023/08/10 02:55:26;;;;;;;3.90;2.00;;;;;;;28.99;37.34;100966.33;103711;1293;61397;-83
2023/08/10 02:57:51;;;;;;;3.90;2.20;;;;;;;28.98;37.40;100968.58;103629;1288;65873;-83
2023/08/10 03:00:17;;;;;;;2.60;1.80;;;;;;;28.98;37.38;100968.59;103789;1288;62433;-83
2023/08/10 03:02:43;;;;;;;3.20;2.00;;;;;;;28.98;37.21;100968.98;103626;1288;62119;-83
2023/08/10 03:05:09;;;;;;;4.20;2.00;;;;;;;28.98;37.18;100966.45;103844;1291;61372;-83
2023/08/10 03:07:34;;;;;;;3.60;2.10;;;;;;;28.98;37.44;100970.44;103621;1292;62393;-83
2023/08/10 03:10:00;;;;;;;3.30;2.00;;;;;;;28.97;37.30;100971.20;103917;1288;61374;-82
2023/08/10 03:12:27;;;;;;;3.90;2.20;;;;;;;28.97;37.17;100974.64;103569;1292;61402;-83
2023/08/10 03:14:52;;;;;;;6.90;2.00;;;;;;;28.98;37.19;100974.61;103390;1286;61427;-83
2023/08/10 03:17:18;;;;;;;5.20;2.20;;;;;;;28.97;37.23;100978.10;103593;1287;61407;-83
2023/08/10 03:19:44;;;;;;;3.10;2.10;;;;;;;28.96;37.30;100977.80;103776;1291;61433;-83
2023/08/10 03:22:10;;;;;;;3.40;2.00;;;;;;;28.97;37.34;100979.27;103622;1286;61405;-82
2023/08/10 03:24:36;;;;;;;4.10;2.10;;;;;;;28.96;37.44;100982.67;103542;1292;61417;-83
2023/08/10 03:27:02;;;;;;;3.80;2.10;;;;;;;28.97;37.40;100978.30;103814;1286;61431;-83
2023/08/10 03:29:27;;;;;;;3.60;2.00;;;;;;;28.97;37.39;100976.33;103898;1286;61405;-82
2023/08/10 03:31:53;;;;;;;3.30;2.00;;;;;;;28.97;37.51;100979.79;103973;1287;61398;-83
2023/08/10 03:34:18;;;;;;;3.50;1.90;;;;;;;28.97;37.20;100981.36;103988;1290;61411;-83
2023/08/10 03:36:44;;;;;;;4.10;2.10;;;;;;;28.97;37.18;100983.19;104224;1285;61306;-83
2023/08/10 03:39:10;;;;;;;3.80;2.00;;;;;;;28.97;37.26;100982.27;104224;1285;63543;-82
2023/08/10 03:41:36;;;;;;;3.30;2.20;;;;;;;28.97;37.21;100977.73;104138;1285;63879;-82
2023/08/10 03:44:02;;;;;;;3.50;2.00;;;;;;;28.97;37.45;100976.46;104180;1285;61380;-81
2023/08/10 03:46:27;;;;;;;3.90;2.10;;;;;;;28.97;37.38;100976.29;103900;1289;61385;-82
2023/08/10 03:48:53;;;;;;;3.10;2.00;;;;;;;28.97;37.42;100976.09;104125;1285;61888;-82
2023/08/10 03:51:18;;;;;;;3.20;2.00;;;;;;;28.97;37.38;100975.92;104297;1289;61268;-82
2023/08/10 03:53:44;;;;;;;2.90;1.90;;;;;;;28.98;37.35;100979.12;104158;1285;63980;-82
2023/08/10 03:56:09;;;;;;;5.30;2.10;;;;;;;28.98;37.43;100980.69;103984;1285;61366;-82
2023/08/10 03:58:35;;;;;;;3.10;1.90;;;;;;;28.98;37.40;100984.83;104250;1285;61385;-82
2023/08/10 04:01:02;;;;;;;3.20;2.00;;;;;;;28.98;37.33;100985.27;103995;1285;61407;-82
2023/08/10 04:03:28;;;;;;;3.70;2.10;;;;;;;28.98;37.38;100981.07;104073;1289;61306;-82
2023/08/10 04:05:54;;;;;;;3.40;2.00;;;;;;;28.98;37.25;100980.89;103866;1287;61516;-82
2023/08/10 04:08:24;;;;;;;2.90;2.00;;;;;;;28.98;37.30;100978.56;103845;1285;61296;-83
2023/08/10 04:10:49;;;;;;;3.40;2.20;;;;;;;28.98;37.23;100981.44;103915;1285;61372;-82
2023/08/10 04:13:15;;;;;;;3.10;1.90;;;;;;;28.98;37.44;100985.58;103873;1285;61380;-83
2023/08/10 04:15:40;;;;;;;3.20;2.00;;;;;;;28.98;37.56;100983.40;103845;1285;61432;-82
2023/08/10 04:18:06;;;;;;;3.50;2.10;;;;;;;28.98;37.54;100982.14;103859;1290;61312;-83
2023/08/10 04:20:32;;;;;;;3.10;2.00;;;;;;;28.97;37.50;100979.48;103902;1285;61401;-82
2023/08/10 04:22:59;;;;;;;3.30;2.00;;;;;;;28.98;37.44;100981.64;103961;1285;61406;-82
2023/08/10 04:25:25;;;;;;;3.80;2.20;;;;;;;28.98;37.34;100984.56;103832;1285;63842;-81
2023/08/10 04:27:51;;;;;;;3.90;2.10;;;;;;;28.97;37.43;100986.60;103874;1285;61477;-82
2023/08/10 04:30:17;;;;;;;2.90;2.00;;;;;;;28.97;37.50;100983.71;103972;1285;61428;-82
2023/08/10 04:32:43;;;;;;;6.20;2.30;;;;;;;28.97;37.41;100983.36;104009;1284;61490;-82
2023/08/10 04:35:09;;;;;;;4.30;2.10;;;;;;;28.97;37.44;100975.78;103765;1287;61275;-82
2023/08/10 04:37:35;;;;;;;4.70;2.40;;;;;;;28.96;37.20;100973.14;103824;1285;61458;-82
2023/08/10 04:40:01;;;;;;;3.80;2.40;;;;;;;28.96;37.06;100971.00;103888;1285;61427;-82
2023/08/10 04:42:26;;;;;;;6.50;2.70;;;;;;;28.95;37.28;100971.98;103754;1287;62347;-82
2023/08/10 04:44:52;;;;;;;4.40;2.40;;;;;;;28.95;37.37;100971.63;103987;1289;61352;-82
2023/08/10 04:47:17;;;;;;;5.30;2.50;;;;;;;28.94;37.09;100965.52;103902;1284;61466;-82
2023/08/10 04:49:43;;;;;;;7.40;2.60;;;;;;;28.94;37.25;100965.75;103820;1285;61462;-82
2023/08/10 04:52:08;;;;;;;4.60;2.50;;;;;;;28.93;37.07;100961.66;103859;1285;61392;-82
2023/08/10 04:54:34;;;;;;;5.10;2.70;;;;;;;28.93;37.03;100968.02;103973;1285;61414;-82
2023/08/10 04:56:59;;;;;;;5.00;2.80;;;;;;;28.92;36.82;100972.66;103892;1284;61377;-82
2023/08/10 04:59:26;;;;;;;5.60;2.40;;;;;;;28.91;36.86;100975.92;103747;1289;63883;-82
2023/08/10 05:01:51;;;;;;;5.50;2.50;;;;;;;28.91;36.76;100976.48;103877;1290;61437;-82
2023/08/10 05:04:17;;;;;;;4.70;2.60;;;;;;;28.90;36.75;100980.19;103847;1285;61424;-82
2023/08/10 05:06:43;;;;;;;6.80;3.00;;;;;;;28.90;36.62;100975.56;103981;1284;61261;-82
2023/08/10 05:09:09;;;;;;;4.20;2.60;;;;;;;28.90;36.82;100973.77;103952;1284;61358;-82
2023/08/10 05:11:35;;;;;;;5.90;2.40;;;;;;;28.89;36.69;100974.91;103796;1284;63616;-82
2023/08/10 05:14:00;;;;;;;5.90;2.80;;;;;;;28.89;36.61;100974.20;103981;1285;61411;-82
2023/08/10 05:16:26;;;;;;;4.00;2.50;;;;;;;28.88;36.56;100976.41;103989;1284;61428;-82
2023/08/10 05:18:51;;;;;;;5.50;3.00;;;;;;;28.89;36.75;100972.40;103797;1284;62056;-82
2023/08/10 05:21:18;;;;;;;5.70;2.70;;;;;;;28.87;36.67;100972.55;104023;1285;61504;-81
2023/08/10 05:23:44;;;;;;;6.10;2.90;;;;;;;28.87;36.54;100972.94;103820;1290;63593;-82
2023/08/10 05:26:10;;;;;;;4.50;2.60;;;;;;;28.88;36.55;100975.79;103915;1288;61407;-82
2023/08/10 05:28:36;;;;;;;4.80;2.70;;;;;;;28.87;36.48;100981.63;103854;1285;61266;-82
2023/08/10 05:31:01;;;;;;;5.30;2.40;;;;;;;28.87;36.69;100983.46;103889;1285;61538;-82
2023/08/10 05:33:27;;;;;;;6.10;2.70;;;;;;;28.87;36.40;100985.84;104026;1289;61360;-83
2023/08/10 05:35:53;;;;;;;7.20;2.70;;;;;;;28.86;36.30;100985.33;103864;1285;61442;-83
2023/08/10 05:38:18;;;;;;;8.40;2.80;;;;;;;28.86;36.18;100989.59;104021;1287;65636;-82
2023/08/10 05:40:44;;;;;;;5.80;2.60;;;;;;;28.84;36.12;100995.35;103700;1287;61488;-83
2023/08/10 05:43:09;;;;;;;6.40;2.50;;;;;;;28.82;36.15;100997.51;104044;1286;61372;-83
2023/08/10 05:45:35;;;;;;;7.00;2.90;;;;;;;28.79;36.27;100996.91;103688;1287;61332;-83
2023/08/10 05:48:00;;;;;;;5.90;2.70;;;;;;;28.78;36.15;100999.92;103967;1290;62436;-83
2023/08/10 05:50:26;;;;;;;5.60;2.90;;;;;;;28.77;36.20;100998.23;103918;1286;64796;-83
2023/08/10 05:52:52;;;;;;;5.10;2.80;;;;;;;28.75;35.98;100996.02;103883;1286;61750;-83
2023/08/10 05:55:18;;;;;;;5.10;2.70;;;;;;;28.75;35.94;100996.44;103993;1284;61456;-83
2023/08/10 05:57:43;;;;;;;6.60;2.90;;;;;;;28.75;35.79;100995.71;103847;1288;61446;-83
2023/08/10 06:00:13;;;;;;;8.50;2.90;;;;;;;28.74;35.97;100996.73;103895;1284;61499;-82
2023/08/10 06:02:40;;;;;;;4.90;3.10;;;;;;;28.73;35.79;101001.34;104165;1284;61403;-83
2023/08/10 06:05:08;;;;;;;8.10;2.90;;;;;;;28.73;35.93;101003.75;104039;1284;61381;-82
2023/08/10 06:07:36;;;;;;;7.20;3.00;;;;;;;28.72;35.87;101003.59;104209;1284;63862;-82
2023/08/10 06:10:03;;;;;;;5.10;2.70;;;;;;;28.72;35.73;101003.13;104174;1284;61453;-82
2023/08/10 06:12:29;;;;;;;5.40;2.80;;;;;;;28.70;35.78;101006.17;104045;1284;61311;-82
2023/08/10 06:14:55;;;;;;;7.10;2.80;;;;;;;28.69;35.92;101010.33;103923;1284;61422;-82
2023/08/10 06:17:21;;;;;;;8.80;3.00;;;;;;;28.66;35.73;101015.63;103852;1284;61285;-82
2023/08/10 06:19:51;;;;;;;7.70;2.80;;;;;;;28.64;35.55;101016.77;104009;1287;61767;-83
2023/08/10 06:22:19;;;;;;;7.60;2.90;;;;;;;28.60;35.86;101011.64;103822;1284;61782;-82
2023/08/10 06:24:45;;;;;;;6.30;2.80;;;;;;;28.58;35.85;101008.58;103871;1284;61412;-82
2023/08/10 06:27:11;;;;;;;5.90;2.60;;;;;;;28.56;35.62;101010.58;104361;1284;61350;-83
2023/08/10 06:29:36;;;;;;;10.50;2.80;;;;;;;28.55;35.71;101016.30;103780;1284;61421;-82
2023/08/10 06:32:06;;;;;;;7.00;2.80;;;;;;;28.55;35.61;101014.16;103815;1285;61269;-83
2023/08/10 06:34:32;;;;;;;6.30;3.20;;;;;;;28.55;35.49;101017.08;104212;1284;61283;-82
2023/08/10 06:36:58;;;;;;;5.70;2.80;;;;;;;28.54;35.50;101020.95;104003;1284;61428;-82
2023/08/10 06:39:24;;;;;;;9.40;2.70;;;;;;;28.54;35.65;101020.75;103684;1285;324200;-81
2023/08/10 06:41:49;;;;;;;7.10;2.70;;;;;;;28.54;35.75;101020.55;104029;1286;61380;-82
2023/08/10 06:44:15;;;;;;;6.00;2.60;;;;;;;28.55;35.69;101017.05;103991;1290;61311;-82
2023/08/10 06:46:40;;;;;;;7.40;2.60;;;;;;;28.56;35.49;101023.62;103927;1288;61512;-82
2023/08/10 06:49:07;;;;;;;5.40;2.60;;;;;;;28.58;35.34;101029.11;103987;1285;63834;-82
2023/08/10 06:51:34;;;;;;;5.20;2.50;;;;;;;28.59;35.48;101028.44;104183;1285;65990;-82
2023/08/10 06:53:59;;;;;;;7.60;2.80;;;;;;;28.60;35.36;101027.57;104170;1284;62033;-82
2023/08/10 06:56:25;;;;;;;6.90;2.70;;;;;;;28.62;35.39;101027.06;104171;1284;61862;-83
2023/08/10 06:58:51;;;;;;;7.30;2.50;;;;;;;28.62;35.44;101024.33;104336;1287;61312;-82
2023/08/10 07:01:17;;;;;;;5.40;2.40;;;;;;;28.63;35.36;101022.44;104662;1288;61345;-83
2023/08/10 07:03:44;;;;;;;6.80;2.70;;;;;;;28.64;35.60;101022.19;104283;1284;61454;-82
2023/08/10 07:06:09;;;;;;;8.70;2.50;;;;;;;28.65;35.44;101021.02;104224;1284;61313;-82
2023/08/10 07:08:35;;;;;;;4.10;2.40;;;;;;;28.66;35.33;101017.67;104147;1285;61346;-82
2023/08/10 07:11:04;;;;;;;8.40;2.40;;;;;;;28.67;35.32;101017.37;103953;1290;61361;-82
2023/08/10 07:13:30;;;;;;;5.70;2.90;;;;;;;28.68;35.35;101021.45;104083;1284;65860;-82
2023/08/10 07:15:55;;;;;;;6.00;2.60;;;;;;;28.68;35.25;101024.11;104169;1284;62251;-82
2023/08/10 07:18:22;;;;;;;6.50;2.60;;;;;;;28.69;35.32;101020.92;103876;1284;61362;-82
2023/08/10 07:20:48;;;;;;;5.60;2.50;;;;;;;28.70;35.06;101024.46;104114;1288;61482;-82
2023/08/10 07:23:17;;;;;;;4.90;2.40;;;;;;;28.71;35.16;101026.34;104036;1286;62611;-82
2023/08/10 07:25:45;;;;;;;9.80;2.80;;;;;;;28.72;35.16;101027.00;104019;1285;61385;-82
2023/08/10 07:28:11;;;;;;;4.50;2.50;;;;;;;28.73;35.22;101026.56;103802;1286;61296;-82
2023/08/10 07:30:36;;;;;;;7.60;2.70;;;;;;;28.73;35.25;101033.00;104079;1286;61388;-82
2023/08/10 07:33:02;;;;;;;7.10;2.40;;;;;;;28.74;35.15;101033.81;104158;1284;61393;-82
2023/08/10 07:35:28;;;;;;;5.60;2.60;;;;;;;28.76;35.10;101038.89;104096;1289;61379;-82
2023/08/10 07:37:53;;;;;;;5.20;2.70;;;;;;;28.78;35.05;101034.75;104040;1284;61208;-81
2023/08/10 07:40:19;;;;;;;4.20;2.40;;;;;;;28.79;35.06;101034.80;104290;1286;61298;-82
2023/08/10 07:42:44;;;;;;;6.80;2.90;;;;;;;28.80;35.27;101034.00;104073;1285;61462;-81
2023/08/10 07:45:10;;;;;;;7.50;3.20;;;;;;;28.81;35.15;101032.58;104114;1284;61408;-82
2023/08/10 07:47:36;;;;;;;7.00;3.50;;;;;;;28.81;35.15;101035.30;104013;1284;61409;-82
2023/08/10 07:50:03;;;;;;;5.40;2.70;;;;;;;28.82;34.99;101033.06;104080;1285;61266;-83
2023/08/10 07:52:28;;;;;;;7.10;2.60;;;;;;;28.82;34.97;101030.17;104146;1289;61930;-83
2023/08/10 07:54:54;;;;;;;7.40;2.60;;;;;;;28.83;35.10;101026.45;104282;1285;61300;-82
2023/08/10 07:57:19;;;;;;;5.30;2.70;;;;;;;28.83;34.97;101026.45;104048;1284;61374;-82
2023/08/10 07:59:45;;;;;;;6.20;2.60;;;;;;;28.83;35.05;101030.39;104192;1287;61405;-82
2023/08/10 08:02:10;;;;;;;6.80;2.70;;;;;;;28.83;35.02;101023.84;104058;1285;61473;-82
2023/08/10 08:04:36;;;;;;;6.10;2.70;;;;;;;28.84;34.96;101023.07;104196;1290;62543;-82
2023/08/10 08:07:02;;;;;;;7.00;2.50;;;;;;;28.84;34.93;101019.66;104046;1287;61505;-82
2023/08/10 08:09:27;;;;;;;5.20;3.00;;;;;;;28.84;34.91;101024.55;104231;1285;62314;-82
2023/08/10 08:11:53;;;;;;;6.50;2.60;;;;;;;28.85;35.11;101024.41;104207;1288;61389;-82
2023/08/10 08:14:19;;;;;;;7.40;2.60;;;;;;;28.86;34.94;101021.62;104267;1287;61390;-82
2023/08/10 08:16:44;;;;;;;4.10;2.50;;;;;;;28.87;34.84;101016.10;104182;1284;61401;-82
2023/08/10 08:19:10;;;;;;;6.00;2.30;;;;;;;28.87;34.85;101016.92;103970;1285;61721;-81
2023/08/10 08:21:35;;;;;;;5.40;2.70;;;;;;;28.88;34.90;101020.15;104227;1285;61508;-82
2023/08/10 08:24:03;;;;;;;7.70;2.70;;;;;;;28.88;35.01;101021.74;104251;1285;61392;-81
2023/08/10 08:26:28;;;;;;;6.10;2.60;;;;;;;28.88;34.86;101022.45;104351;1284;61312;-82
2023/08/10 08:28:54;;;;;;;5.40;2.40;;;;;;;28.89;34.90;101019.80;104035;1290;61488;-82
2023/08/10 08:31:20;;;;;;;4.30;2.40;;;;;;;28.88;34.87;101019.74;104057;1284;61331;-82
2023/08/10 08:33:46;;;;;;;6.50;2.70;;;;;;;28.88;34.61;101020.42;104130;1284;61388;-82
2023/08/10 08:36:11;;;;;;;4.80;2.60;;;;;;;28.87;34.73;101014.20;104108;1286;61398;-82
2023/08/10 08:38:37;;;;;;;6.40;2.50;;;;;;;28.88;34.80;101012.88;104259;1284;61481;-81
2023/08/10 08:41:07;;;;;;;5.60;2.30;;;;;;;28.88;34.90;101007.47;104054;1290;63731;-82
2023/08/10 08:43:33;;;;;;;4.60;2.40;;;;;;;28.88;34.86;101007.79;103634;1284;64519;-82
2023/08/10 08:45:59;;;;;;;5.50;2.70;;;;;;;28.89;34.63;101007.55;104143;1285;61293;-82
2023/08/10 08:48:27;;;;;;;4.40;2.50;;;;;;;28.89;34.58;100996.34;104179;1285;61939;-82
2023/08/10 08:50:53;;;;;;;;;;;;;;;28.88;34.70;101001.66;104025;1285;63929;-82
2023/08/10 08:53:19;;;;;;;5.70;2.80;;;;;;;28.86;34.73;101001.83;104159;1287;61297;-82
2023/08/10 08:55:46;;;;;;;4.90;2.60;;;;;;;28.86;34.82;101002.94;104303;1284;61799;-82
2023/08/10 08:58:15;;;;;;;3.90;2.40;;;;;;;28.86;34.83;100999.48;103853;1284;61391;-82
2023/08/10 09:00:45;;;;;;;4.80;2.60;;;;;;;28.85;34.60;100998.29;104057;1286;63873;-82
2023/08/10 09:03:11;;;;;;;4.40;2.50;;;;;;;28.87;34.59;101000.33;103943;1284;65909;-82
2023/08/10 09:05:36;;;;;;;4.50;2.60;;;;;;;28.87;34.58;100998.88;103990;1288;61373;-82
2023/08/10 09:08:02;;;;;;;4.80;2.30;;;;;;;28.87;34.67;101000.69;104065;1289;61359;-83
2023/08/10 09:10:28;;;;;;;4.50;2.30;;;;;;;28.86;34.37;101000.04;104157;1284;61376;-82
2023/08/10 09:12:53;;;;;;;4.70;2.40;;;;;;;28.87;34.29;100997.59;104069;1288;61404;-82
2023/08/10 09:15:19;;;;;;;5.30;2.30;;;;;;;28.87;34.39;100993.17;103991;1284;61492;-82
2023/08/10 09:17:52;;;;;;;4.70;2.30;;;;;;;28.88;34.20;100990.29;103997;1286;61930;-83
2023/08/10 09:20:26;;;;;;;4.20;2.20;;;;;;;28.87;34.08;100986.73;104014;1290;61365;-82
2023/08/10 09:22:57;;;;;;;5.50;2.70;;;;;;;28.87;34.20;100982.51;104202;1285;63651;-81
2023/08/10 09:25:23;;;;;;;5.10;2.30;;;;;;;28.88;34.34;100975.92;104206;1285;65842;-82
2023/08/10 09:27:49;;;;;;;4.00;2.40;;;;;;;28.89;34.20;100975.13;104001;1288;61396;-83
2023/08/10 09:30:14;;;;;;;4.70;2.50;;;;;;;28.89;34.20;100965.48;103984;1284;62006;-83
2023/08/10 09:32:40;;;;;;;6.10;2.50;;;;;;;28.90;34.10;100963.41;104031;1287;61372;-83
2023/08/10 09:35:11;;;;;;;4.70;2.40;;;;;;;28.90;34.04;100962.89;103974;1295;62473;-82
2023/08/10 09:37:37;;;;;;;4.80;2.20;;;;;;;28.90;33.87;100962.29;104054;1284;61326;-82
2023/08/10 09:40:06;;;;;;;4.40;2.20;;;;;;;28.91;34.06;100966.35;104221;1288;61386;-83
2023/08/10 09:42:32;;;;;;;3.40;2.10;;;;;;;28.91;33.93;100958.40;104185;1286;63814;-82
2023/08/10 09:44:59;;;;;;;3.10;2.10;;;;;;;28.91;33.84;100953.64;103993;1286;61322;-82
2023/08/10 09:47:25;;;;;;;3.70;2.50;;;;;;;28.91;33.69;100960.91;104053;1285;61280;-83
2023/08/10 09:49:55;;;;;;;5.10;2.30;;;;;;;28.91;33.66;100959.48;104155;1285;61410;-83
2023/08/10 09:52:22;;;;;;;4.70;2.50;;;;;;;28.91;33.58;100958.23;104203;1286;63754;-82
2023/08/10 09:54:49;;;;;;;4.50;2.40;;;;;;;28.91;33.67;100952.59;104124;1285;61300;-82
2023/08/10 09:57:15;;;;;;;6.60;2.60;;;;;;;28.91;33.46;100951.65;104111;1285;61444;-82
2023/08/10 09:59:40;;;;;;;4.50;2.30;;;;;;;28.92;33.41;100956.13;104010;1287;61387;-81
2023/08/10 10:02:08;;;;;;;3.60;2.30;;;;;;;28.92;33.64;100954.33;103968;1284;61320;-81
2023/08/10 10:04:34;;;;;;;5.00;2.20;;;;;;;28.92;33.29;100952.27;104214;1285;61383;-82
2023/08/10 10:07:00;;;;;;;4.80;2.20;;;;;;;28.93;33.40;100948.56;104377;1284;61404;-82
2023/08/10 10:09:26;;;;;;;3.80;2.30;;;;;;;28.95;33.33;100952.61;104421;1284;61508;-82
2023/08/10 10:11:52;;;;;;;4.00;2.40;;;;;;;28.96;33.19;100955.63;104312;1284;61208;-81
2023/08/10 10:14:17;;;;;;;3.70;2.30;;;;;;;28.96;33.14;100958.12;104238;1285;61363;-81
2023/08/10 10:16:43;;;;;;;3.40;2.40;;;;;;;28.97;33.05;100957.79;104125;1286;61887;-82
2023/08/10 10:19:09;;;;;;;3.50;2.00;;;;;;;28.98;33.03;100954.98;104316;1290;61304;-81
2023/08/10 10:21:35;;;;;;;4.40;2.10;;;;;;;28.99;33.06;100945.88;104313;1284;61353;-81
2023/08/10 10:24:04;;;;;;;3.60;2.10;;;;;;;29.00;32.87;100954.04;104197;1286;61438;-82
2023/08/10 10:26:29;;;;;;;4.00;2.30;;;;;;;29.00;32.86;100943.52;104111;1291;65659;-82
2023/08/10 10:29:15;;;;;;;4.20;2.40;;;;;;;29.01;32.64;100938.77;104033;1286;61470;-82
2023/08/10 10:31:41;;;;;;;3.90;2.30;;;;;;;29.01;32.72;100933.88;103771;1286;61411;-81
2023/08/10 10:34:11;;;;;;;3.60;2.20;;;;;;;29.02;32.48;100935.00;103918;1286;62522;-82
2023/08/10 10:36:38;;;;;;;3.40;2.20;;;;;;;29.02;32.64;100931.94;103979;1286;65905;-81
2023/08/10 10:39:07;;;;;;;3.40;1.90;;;;;;;29.03;32.55;100927.70;103999;1288;61314;-82
2023/08/10 10:41:34;;;;;;;;;;;;;;;29.03;32.54;100923.70;103803;1286;61183;-82
2023/08/10 10:44:03;;;;;;;3.30;2.10;;;;;;;29.01;32.62;100919.74;103926;1287;65482;-82
2023/08/10 10:46:32;;;;;;;4.30;2.20;;;;;;;29.01;32.53;100917.86;103916;1286;65587;-81
2023/08/10 10:48:58;;;;;;;4.40;2.30;;;;;;;29.01;32.43;100914.95;104071;1285;61442;-82
2023/08/10 10:51:24;;;;;;;4.00;2.10;;;;;;;29.02;32.51;100916.89;103918;1291;61553;-82
2023/08/10 10:53:53;;;;;;;4.00;2.10;;;;;;;29.02;32.54;100913.27;103978;1286;61336;-83
2023/08/10 10:56:20;;;;;;;3.90;2.20;;;;;;;29.02;32.32;100914.17;103763;1291;65745;-82
2023/08/10 10:58:47;;;;;;;4.40;2.20;;;;;;;29.02;32.37;100910.70;104026;1289;61411;-82
2023/08/10 11:01:14;;;;;;;4.10;2.00;;;;;;;29.02;32.43;100912.67;103837;1285;61391;-82
2023/08/10 11:03:42;;;;;;;3.50;2.30;;;;;;;29.03;32.40;100918.98;104327;1290;63885;-82
2023/08/10 11:06:12;;;;;;;5.20;2.20;;;;;;;29.03;32.34;100906.64;104123;1285;65901;-82
2023/08/10 11:08:38;;;;;;;3.30;2.20;;;;;;;29.03;32.31;100911.02;103838;1288;61408;-82
2023/08/10 11:11:03;;;;;;;3.80;2.10;;;;;;;29.04;32.11;100910.38;103993;1287;61348;-83
2023/08/10 11:13:29;;;;;;;3.40;2.10;;;;;;;29.04;32.24;100907.45;103966;1290;61390;-82